ADDS METAR Data INFO
IDs: Format: Raw Decoded Include TAF

Data at: 0021 UTC 17 Dec 2017

KORH 162354Z 26008KT 10SM CLR M05/M09 A3001 RMK AO2 SLP180 60000 T10501089 11033 21056 51035
KORH 162254Z 27007KT 10SM FEW025 SCT030 OVC070 M04/M08 A2998 RMK AO2 SLP169 T10441078
KORH 162154Z 26007KT 10SM OVC075 M04/M08 A2994 RMK AO2 SNE26 SLP157 P0000 T10441078
KORH 162134Z 26006KT 10SM FEW038 OVC080 M04/M08 A2993 RMK AO2 SNE26 P0000 T10441078
KORH 162054Z 26009KT 2 1/2SM -SN OVC030 M04/M07 A2990 RMK AO2 SLP144 P0000 60000 T10441072 51015
KORH 162052Z 26008KT 2SM -SN OVC028 M04/M07 A2990 RMK AO2 P0000
KORH 162006Z 27008KT 1 3/4SM -SN BKN026 OVC035 M04/M08 A2989 RMK AO2 SFC VIS 2 P0000 T10391078
KORH 161954Z 26009KT 2SM -SN OVC028 M04/M08 A2988 RMK AO2 SFC VIS 3 SNB13 SLP136 P0000 T10391083
KORH 161952Z 27010KT 2SM -SN BKN028 OVC039 M03/M08 A2988 RMK AO2 SFC VIS 3 SNB13 P0000
KORH 161934Z COR 26012KT 9SM -SN BKN037 OVC050 M03/M11 A2986 RMK AO2 SLP127 T10331106
KORH 161854Z COR 26012KT 9SM -SN BKN050 OVC060 M03/M11 A2986 RMK AO2 SLP127 T10331106
KORH 161754Z 25016G22KT 10SM FEW065 OVC095 M04/M11 A2985 RMK AO2 SLP124 T10391111 11033 21089 58009
KORH 161654Z 25016G20KT 10SM OVC110 M04/M12 A2987 RMK AO2 PK WND 25027/1623 SLP131 T10391117
KORH 161554Z 26014G21KT 10SM CLR M04/M11 A2989 RMK AO2 PK WND 25026/1527 SLP137 T10391111
KORH 161454Z 25014KT 10SM CLR M06/M11 A2988 RMK AO2 SLP134 T10561111 51022
KORH 161354Z 25015KT 10SM CLR M07/M12 A2986 RMK AO2 SLP130 T10721117
KORH 161254Z 26015KT 10SM CLR M08/M12 A2983 RMK AO2 SLP121 T10831117
KORH 161154Z 26010KT 10SM CLR M09/M12 A2981 RMK AO2 SLP113 70002 T10891117 11078 21094 51018
KORH 161054Z 26011KT 10SM CLR M09/M12 A2980 RMK AO2 SLP110 T10941117
KORH 160954Z COR 26012KT 10SM CLR M09/M12 A2978 RMK AO2 SLP103 T10891117
KORH 160854Z AUTO 26011KT 10SM CLR M08/M11 A2976 RMK AO2 SLP094 T10831111 51007
KORH 160754Z AUTO 27012KT 10SM SCT090 M08/M11 A2975 RMK AO2 SLP093 T10831111
KORH 160654Z AUTO 27011KT 10SM CLR M08/M11 A2974 RMK AO2 SLP089 T10831106
KORH 160554Z 28013KT 10SM OVC110 M08/M10 A2974 RMK AO2 SLP086 60002 T10781100 11067 21078 56014
KORH 160454Z 27011KT 10SM BKN100 M08/M10 A2974 RMK AO2 SNE10 SLP090 P0000 T10781100 410561117
KORH 160354Z 27010KT 9SM -SN OVC095 M07/M10 A2976 RMK AO2 SNB28 SLP095 P0000 T10721100
KORH 160254Z 24008KT 9SM SCT042 BKN080 OVC100 M08/M10 A2978 RMK AO2 SNE52 SLP102 P0001 60002 T10781100 58012
KORH 160216Z AUTO 24007KT 3SM -SN BR OVC035 M08/M10 A2979 RMK AO2 P0001 T10781100
KORH 160159Z 24008KT 2 1/2SM -SN BR OVC029 M08/M10 A2980 RMK AO2 P0000 T10781100
KORH 160154Z 24007KT 3SM -SN BR OVC031 M08/M10 A2979 RMK AO2 SLP108 P0001 T10781100
KORH 160151Z 24006KT 3SM -SN BR OVC031 M08/M10 A2980 RMK AO2 P0001
KORH 160139Z 23006KT 2 1/2SM -SN BR OVC030 M08/M10 A2980 RMK AO2 P0001 T10781100
KORH 160133Z 23006KT 1 3/4SM -SN BR OVC026 M08/M10 A2981 RMK AO2 P0001 T10781100
KORH 160123Z 23006KT 2SM -SN BR OVC026 M08/M10 A2981 RMK AO2 P0001 T10781100
KORH 160054Z 21007KT 2 1/2SM -SN OVC032 M07/M11 A2981 RMK AO2 SNB35 SLP114 P0000 T10721111
KORH 152354Z 19005KT 10SM OVC065 M07/M12 A2982 RMK AO2 SLP116 T10671122 11056 21067 55017
KORH 152254Z 00000KT 10SM OVC070 M07/M13 A2980 RMK AO2 SLP109 T10671128
KORH 152154Z 13004KT 10SM BKN080 OVC100 M07/M13 A2984 RMK AO2 SLP124 T10671128
KORH 152054Z 16003KT 10SM OVC070 M06/M12 A2987 RMK AO2 SLP134 T10611122 58022
KORH 151954Z 16005KT 10SM BKN080 OVC095 M06/M12 A2990 RMK AO2 SLP144 T10611122
KORH 151854Z 23005KT 10SM OVC085 M06/M13 A2992 RMK AO2 SLP149 T10561128
KORH 151754Z 22004KT 10SM OVC100 M06/M13 A2994 RMK AO2 SLP157 T10611133 11061 21106 58027
KORH 151654Z 21003KT 10SM CLR M07/M13 A2997 RMK AO2 SLP168 T10671133
KORH 151554Z 22003KT 10SM CLR M07/M13 A3000 RMK AO2 SLP179 T10671128
KORH 151454Z 28007KT 10SM CLR M08/M14 A3002 RMK AO2 SLP186 T10781139 53013
KORH 151354Z 26006KT 10SM CLR M09/M14 A3000 RMK AO2 SLP181 T10941139
KORH 151254Z 27007KT 10SM CLR M10/M14 A3000 RMK AO2 SLP178 T11001144